Observations for SHAWBURY RAF, United Kingdom (EGOS)

EGOS 180250Z AUTO 04002KT 7000 BR FEW039/// BKN060/// 03/02 Q1020 RERA  
EGOS 180150Z AUTO 30002KT 8000 BR SCT022/// BKN042/// 04/03 Q1021 RERA  
EGOS 180050Z AUTO 13004KT 9999 BKN050/// 04/02 Q1020
EGOS 172350Z AUTO 12001KT 9999 SCT050/// 03/01 Q1020
EGOS 172250Z AUTO 09002KT 9999 BKN050/// 01/01 Q1021
EGOS 172150Z AUTO 15001KT 9999 NCD 01/00 Q1020  
EGOS 172050Z AUTO 00000KT 9999 FEW044/// 04/02 Q1020
EGOS 171950Z AUTO 21003KT 9999 FEW036/// BKN050/// 06/03 Q1020 RERA 
EGOS 171850Z AUTO 25003KT 9999 SCT044/// 03/01 Q1020
EGOS 171750Z AUTO 19005KT 9999 SCT210/// 07/02 Q1020
EGOS 171650Z AUTO 22006KT 9999 NCD 08/02 Q1019  
EGOS 171550Z AUTO 22008KT 9999 SCT038/// 09/01 Q1019
EGOS 171450Z AUTO 23006KT 9999 SCT050/// 09/02 Q1019
EGOS 171350Z AUTO 22009KT 9999 FEW038/// BKN044/// 09/02 Q1019  
EGOS 171250Z AUTO 23010KT 9999 BKN023/// SCT031/// 09/04 Q1020  
EGOS 171150Z AUTO 22012KT 9999 FEW017/// 08/04 Q1020
EGOS 171050Z AUTO 22010KT 9999 FEW023/// BKN032/// 07/04 Q1019  
EGOS 170950Z AUTO 20009KT 9999 OVC026/// 06/03 Q1019 RERA   
EGOS 170850Z AUTO 19008KT 9999 BKN028/// 05/03 Q1019 RERA   
EGOS 170750Z AUTO 19006KT 9999 -RA SCT043/// BKN050/// 05/02 Q1019  
EGOS 170650Z AUTO 16009KT 9999 BKN037/// BKN110/// 05/02 Q1018  
EGOS 170550Z AUTO 17008KT 9999 BKN043/// 05/02 Q1018 RERA   
EGOS 170450Z AUTO 15006KT 9999 OVC050/// 04/02 Q1018
EGOS 170350Z AUTO 16007KT 9999 BKN090/// 04/02 Q1018
EGOS 170250Z AUTO 15005KT 9999 FEW060/// OVC100/// 04/02 Q1019